sensor_id;sensor_type;location;lat;lon;timestamp;pressure;altitude;pressure_sealevel;temperature;humidity
31299;BME280;17927;52.350;13.402;2022-09-09T00:02:18;100663.69;;;19.58;63.28
31299;BME280;17927;52.350;13.402;2022-09-09T00:04:54;100670.63;;;19.54;63.65
31299;BME280;17927;52.350;13.402;2022-09-09T00:21:13;100653.94;;;19.42;63.77
31299;BME280;17927;52.350;13.402;2022-09-09T00:23:39;100645.28;;;19.38;63.40
31299;BME280;17927;52.350;13.402;2022-09-09T00:26:24;100645.28;;;19.38;63.26
31299;BME280;17927;52.350;13.402;2022-09-09T00:29:22;100642.94;;;19.35;63.59
31299;BME280;17927;52.350;13.402;2022-09-09T00:31:50;100639.56;;;19.33;63.28
31299;BME280;17927;52.350;13.402;2022-09-09T00:34:23;100645.88;;;19.33;63.15
31299;BME280;17927;52.350;13.402;2022-09-09T00:36:51;100640.41;;;19.33;62.85
31299;BME280;17927;52.350;13.402;2022-09-09T00:39:38;100638.94;;;19.31;63.11
31299;BME280;17927;52.350;13.402;2022-09-09T00:42:25;100643.09;;;19.27;62.74
31299;BME280;17927;52.350;13.402;2022-09-09T00:45:16;100646.25;;;19.24;62.81
31299;BME280;17927;52.350;13.402;2022-09-09T00:47:51;100651.28;;;19.20;62.69
31299;BME280;17927;52.350;13.402;2022-09-09T00:53:22;100638.44;;;19.14;62.85
31299;BME280;17927;52.350;13.402;2022-09-09T00:58:54;100645.97;;;19.05;62.70
31299;BME280;17927;52.350;13.402;2022-09-09T01:01:21;100643.63;;;19.02;62.63
31299;BME280;17927;52.350;13.402;2022-09-09T01:03:55;100652.66;;;19.02;62.63
31299;BME280;17927;52.350;13.402;2022-09-09T01:12:16;100650.75;;;18.96;63.09
31299;BME280;17927;52.350;13.402;2022-09-09T01:14:45;100644.16;;;18.91;63.28
31299;BME280;17927;52.350;13.402;2022-09-09T01:22:26;100648.19;;;18.95;63.71
31299;BME280;17927;52.350;13.402;2022-09-09T01:25:18;100654.06;;;18.92;63.86
31299;BME280;17927;52.350;13.402;2022-09-09T01:27:46;100647.09;;;18.89;63.55
31299;BME280;17927;52.350;13.402;2022-09-09T01:30:16;100645.00;;;18.91;63.92
31299;BME280;17927;52.350;13.402;2022-09-09T01:32:48;100647.53;;;18.93;63.53
31299;BME280;17927;52.350;13.402;2022-09-09T01:37:55;100640.97;;;18.87;63.58
31299;BME280;17927;52.350;13.402;2022-09-09T01:40:21;100640.97;;;18.87;63.55
31299;BME280;17927;52.350;13.402;2022-09-09T01:42:46;100640.13;;;18.86;63.66
31299;BME280;17927;52.350;13.402;2022-09-09T01:45:11;100641.19;;;18.85;63.74
31299;BME280;17927;52.350;13.402;2022-09-09T01:47:37;100638.66;;;18.84;63.20
31299;BME280;17927;52.350;13.402;2022-09-09T01:50:02;100646.84;;;18.84;63.79
31299;BME280;17927;52.350;13.402;2022-09-09T01:52:29;100642.44;;;18.83;63.51
31299;BME280;17927;52.350;13.402;2022-09-09T01:54:55;100646.22;;;18.82;63.70
31299;BME280;17927;52.350;13.402;2022-09-09T01:57:25;100651.03;;;18.80;63.62
31299;BME280;17927;52.350;13.402;2022-09-09T02:02:32;100653.34;;;18.76;64.03
31299;BME280;17927;52.350;13.402;2022-09-09T02:07:43;100649.72;;;18.76;63.69
31299;BME280;17927;52.350;13.402;2022-09-09T02:12:51;100652.88;;;18.72;63.72
31299;BME280;17927;52.350;13.402;2022-09-09T02:15:32;100659.38;;;18.71;63.73
31299;BME280;17927;52.350;13.402;2022-09-09T02:18:02;100657.69;;;18.70;63.45
31299;BME280;17927;52.350;13.402;2022-09-09T02:20:31;100661.47;;;18.69;63.31
31299;BME280;17927;52.350;13.402;2022-09-09T02:22:58;100658.09;;;18.67;63.05
31299;BME280;17927;52.350;13.402;2022-09-09T02:25:26;100649.03;;;18.67;63.04
31299;BME280;17927;52.350;13.402;2022-09-09T02:27:53;100652.38;;;18.62;63.26
31299;BME280;17927;52.350;13.402;2022-09-09T02:30:19;100647.94;;;18.61;63.28
31299;BME280;17927;52.350;13.402;2022-09-09T02:32:46;100649.84;;;18.61;63.15
31299;BME280;17927;52.350;13.402;2022-09-09T02:35:16;100647.50;;;18.58;62.82
31299;BME280;17927;52.350;13.402;2022-09-09T02:37:44;100649.97;;;18.52;62.66
31299;BME280;17927;52.350;13.402;2022-09-09T02:40:12;100648.28;;;18.51;62.64
31299;BME280;17927;52.350;13.402;2022-09-09T02:42:44;100642.38;;;18.48;63.00
31299;BME280;17927;52.350;13.402;2022-09-09T02:45:13;100651.19;;;18.43;62.86
31299;BME280;17927;52.350;13.402;2022-09-09T02:48:09;100659.78;;;18.40;62.52
31299;BME280;17927;52.350;13.402;2022-09-09T02:50:45;100659.50;;;18.35;62.64
31299;BME280;17927;52.350;13.402;2022-09-09T02:53:20;100656.97;;;18.33;62.51
31299;BME280;17927;52.350;13.402;2022-09-09T02:55:51;100655.47;;;18.31;62.56
31299;BME280;17927;52.350;13.402;2022-09-09T02:58:19;100653.78;;;18.30;62.79
31299;BME280;17927;52.350;13.402;2022-09-09T03:00:46;100647.25;;;18.31;63.10
31299;BME280;17927;52.350;13.402;2022-09-09T03:03:12;100656.50;;;18.30;63.15
31299;BME280;17927;52.350;13.402;2022-09-09T03:05:38;100662.84;;;18.30;63.18
31299;BME280;17927;52.350;13.402;2022-09-09T03:08:04;100663.03;;;18.29;63.52
31299;BME280;17927;52.350;13.402;2022-09-09T03:10:31;100663.88;;;18.29;63.73
31299;BME280;17927;52.350;13.402;2022-09-09T03:12:56;100665.56;;;18.30;63.83
31299;BME280;17927;52.350;13.402;2022-09-09T03:15:21;100658.19;;;18.31;63.60
31299;BME280;17927;52.350;13.402;2022-09-09T03:17:47;100664.72;;;18.30;63.80
31299;BME280;17927;52.350;13.402;2022-09-09T03:20:12;100664.53;;;18.31;63.90
31299;BME280;17927;52.350;13.402;2022-09-09T03:22:37;100670.84;;;18.32;63.89
31299;BME280;17927;52.350;13.402;2022-09-09T03:25:03;100675.47;;;18.31;63.83
31299;BME280;17927;52.350;13.402;2022-09-09T03:27:29;100678.38;;;18.30;64.16
31299;BME280;17927;52.350;13.402;2022-09-09T03:29:55;100670.00;;;18.31;63.83
31299;BME280;17927;52.350;13.402;2022-09-09T03:32:21;100675.66;;;18.30;64.04
31299;BME280;17927;52.350;13.402;2022-09-09T03:34:48;100675.47;;;18.31;64.14
31299;BME280;17927;52.350;13.402;2022-09-09T03:37:15;100678.22;;;18.31;64.30
31299;BME280;17927;52.350;13.402;2022-09-09T03:39:41;100673.13;;;18.28;64.36
31299;BME280;17927;52.350;13.402;2022-09-09T03:42:06;100671.44;;;18.27;64.06
31299;BME280;17927;52.350;13.402;2022-09-09T03:44:31;100677.75;;;18.28;64.35
31299;BME280;17927;52.350;13.402;2022-09-09T03:46:57;100680.50;;;18.28;64.17
31299;BME280;17927;52.350;13.402;2022-09-09T03:49:24;100667.00;;;18.26;64.31
31299;BME280;17927;52.350;13.402;2022-09-09T03:51:51;100670.59;;;18.26;64.38
31299;BME280;17927;52.350;13.402;2022-09-09T03:54:16;100673.34;;;18.26;64.34
31299;BME280;17927;52.350;13.402;2022-09-09T03:56:42;100678.97;;;18.25;64.35
31299;BME280;17927;52.350;13.402;2022-09-09T03:59:07;100668.91;;;18.25;63.77
31299;BME280;17927;52.350;13.402;2022-09-09T04:01:33;100671.81;;;18.24;64.19
31299;BME280;17927;52.350;13.402;2022-09-09T04:03:59;100669.06;;;18.24;63.88
31299;BME280;17927;52.350;13.402;2022-09-09T04:06:25;100666.56;;;18.22;63.87
31299;BME280;17927;52.350;13.402;2022-09-09T04:08:50;100667.59;;;18.21;63.52
31299;BME280;17927;52.350;13.402;2022-09-09T04:11:17;100673.28;;;18.20;63.65
31299;BME280;17927;52.350;13.402;2022-09-09T04:13:43;100669.88;;;18.18;63.77
31299;BME280;17927;52.350;13.402;2022-09-09T04:16:10;100671.09;;;18.15;64.08
31299;BME280;17927;52.350;13.402;2022-09-09T04:18:38;100669.63;;;18.13;64.05
31299;BME280;17927;52.350;13.402;2022-09-09T04:21:03;100677.16;;;18.10;63.78
31299;BME280;17927;52.350;13.402;2022-09-09T04:23:30;100680.09;;;18.09;63.74
31299;BME280;17927;52.350;13.402;2022-09-09T04:25:57;100683.00;;;18.07;63.81
31299;BME280;17927;52.350;13.402;2022-09-09T04:28:25;100683.88;;;18.08;64.35
31299;BME280;17927;52.350;13.402;2022-09-09T04:30:50;100679.44;;;18.07;64.19
31299;BME280;17927;52.350;13.402;2022-09-09T04:33:16;100691.19;;;18.07;64.12
31299;BME280;17927;52.350;13.402;2022-09-09T04:35:46;100700.25;;;18.08;64.10
31299;BME280;17927;52.350;13.402;2022-09-09T04:38:12;100695.47;;;18.10;64.24
31299;BME280;17927;52.350;13.402;2022-09-09T04:40:37;100700.06;;;18.09;63.85
31299;BME280;17927;52.350;13.402;2022-09-09T04:43:05;100705.53;;;18.09;63.79
31299;BME280;17927;52.350;13.402;2022-09-09T04:45:30;100697.31;;;18.09;64.09
31299;BME280;17927;52.350;13.402;2022-09-09T04:47:56;100700.06;;;18.09;64.06
31299;BME280;17927;52.350;13.402;2022-09-09T04:50:21;100703.66;;;18.10;63.96
31299;BME280;17927;52.350;13.402;2022-09-09T04:52:46;100706.38;;;18.10;63.67
31299;BME280;17927;52.350;13.402;2022-09-09T04:55:12;100706.19;;;18.11;63.79
31299;BME280;17927;52.350;13.402;2022-09-09T04:57:38;100706.84;;;18.14;63.99
31299;BME280;17927;52.350;13.402;2022-09-09T05:00:04;100706.63;;;18.15;63.79
31299;BME280;17927;52.350;13.402;2022-09-09T05:02:29;100706.44;;;18.17;63.80
31299;BME280;17927;52.350;13.402;2022-09-09T05:04:55;100714.28;;;18.20;63.75
31299;BME280;17927;52.350;13.402;2022-09-09T05:07:21;100707.56;;;18.22;63.89
31299;BME280;17927;52.350;13.402;2022-09-09T05:09:46;100708.00;;;18.26;64.20
31299;BME280;17927;52.350;13.402;2022-09-09T05:12:13;100705.34;;;18.33;64.43
31299;BME280;17927;52.350;13.402;2022-09-09T05:14:38;100709.81;;;18.40;64.29
31299;BME280;17927;52.350;13.402;2022-09-09T05:17:03;100710.09;;;18.46;64.49
31299;BME280;17927;52.350;13.402;2022-09-09T05:19:29;100709.50;;;18.50;64.49
31299;BME280;17927;52.350;13.402;2022-09-09T05:21:56;100716.94;;;18.56;64.89
31299;BME280;17927;52.350;13.402;2022-09-09T05:24:21;100709.44;;;18.65;65.04
31299;BME280;17927;52.350;13.402;2022-09-09T05:26:48;100709.09;;;18.75;64.70
31299;BME280;17927;52.350;13.402;2022-09-09T05:29:13;100706.00;;;18.85;64.73
31299;BME280;17927;52.350;13.402;2022-09-09T05:31:39;100715.56;;;18.96;64.96
31299;BME280;17927;52.350;13.402;2022-09-09T05:34:04;100705.13;;;19.06;65.13
31299;BME280;17927;52.350;13.402;2022-09-09T05:36:29;100710.22;;;19.16;65.39
31299;BME280;17927;52.350;13.402;2022-09-09T05:38:55;100709.03;;;19.25;65.03
31299;BME280;17927;52.350;13.402;2022-09-09T05:41:20;100697.72;;;19.35;65.12
31299;BME280;17927;52.350;13.402;2022-09-09T05:43:46;100709.34;;;19.44;64.74
31299;BME280;17927;52.350;13.402;2022-09-09T05:46:22;100718.25;;;19.53;64.42
31299;BME280;17927;52.350;13.402;2022-09-09T05:48:48;100718.28;;;19.59;64.52
31299;BME280;17927;52.350;13.402;2022-09-09T05:51:17;100718.09;;;19.68;64.32
31299;BME280;17927;52.350;13.402;2022-09-09T05:53:44;100718.75;;;19.76;64.49
31299;BME280;17927;52.350;13.402;2022-09-09T05:56:15;100721.34;;;19.85;64.37
31299;BME280;17927;52.350;13.402;2022-09-09T05:58:40;100722.22;;;19.92;64.42
31299;BME280;17927;52.350;13.402;2022-09-09T06:01:08;100737.22;;;20.03;64.17
31299;BME280;17927;52.350;13.402;2022-09-09T06:03:37;100730.31;;;20.14;64.11
31299;BME280;17927;52.350;13.402;2022-09-09T06:06:06;100735.19;;;20.25;64.37
31299;BME280;17927;52.350;13.402;2022-09-09T06:08:36;100733.72;;;20.36;63.67
31299;BME280;17927;52.350;13.402;2022-09-09T06:11:08;100726.56;;;20.48;63.70
31299;BME280;17927;52.350;13.402;2022-09-09T06:13:34;100733.97;;;20.54;63.79
31299;BME280;17927;52.350;13.402;2022-09-09T06:16:02;100730.38;;;20.67;63.51
31299;BME280;17927;52.350;13.402;2022-09-09T06:18:27;100727.47;;;20.76;63.33
31299;BME280;17927;52.350;13.402;2022-09-09T06:20:57;100733.59;;;20.84;63.04
31299;BME280;17927;52.350;13.402;2022-09-09T06:23:23;100737.38;;;20.90;63.12
31299;BME280;17927;52.350;13.402;2022-09-09T06:25:48;100737.38;;;20.97;62.60
31299;BME280;17927;52.350;13.402;2022-09-09T06:28:14;100737.38;;;21.04;62.76
31299;BME280;17927;52.350;13.402;2022-09-09T06:30:40;100737.56;;;21.09;62.66
31299;BME280;17927;52.350;13.402;2022-09-09T06:33:06;100736.94;;;21.13;62.67
31299;BME280;17927;52.350;13.402;2022-09-09T06:35:31;100738.19;;;21.18;62.18
31299;BME280;17927;52.350;13.402;2022-09-09T06:37:57;100734.16;;;21.20;62.04
31299;BME280;17927;52.350;13.402;2022-09-09T06:40:24;100732.47;;;21.26;61.63
31299;BME280;17927;52.350;13.402;2022-09-09T06:42:49;100729.06;;;21.30;61.67
31299;BME280;17927;52.350;13.402;2022-09-09T06:45:14;100728.22;;;21.37;61.41
31299;BME280;17927;52.350;13.402;2022-09-09T06:47:39;100734.13;;;21.40;60.64
31299;BME280;17927;52.350;13.402;2022-09-09T06:50:06;100723.75;;;21.42;60.28
31299;BME280;17927;52.350;13.402;2022-09-09T06:52:32;100734.31;;;21.45;60.46
31299;BME280;17927;52.350;13.402;2022-09-09T06:54:58;100738.31;;;21.50;60.64
31299;BME280;17927;52.350;13.402;2022-09-09T06:57:24;100737.69;;;21.54;60.48
31299;BME280;17927;52.350;13.402;2022-09-09T06:59:49;100736.84;;;21.60;60.88
31299;BME280;17927;52.350;13.402;2022-09-09T07:02:14;100728.16;;;21.64;60.30
31299;BME280;17927;52.350;13.402;2022-09-09T07:04:39;100729.84;;;21.65;60.17
31299;BME280;17927;52.350;13.402;2022-09-09T07:07:05;100732.59;;;21.65;60.18
31299;BME280;17927;52.350;13.402;2022-09-09T07:09:30;100734.72;;;21.63;59.94
31299;BME280;17927;52.350;13.402;2022-09-09T07:11:56;100730.91;;;21.64;60.40
31299;BME280;17927;52.350;13.402;2022-09-09T07:14:23;100738.28;;;21.70;60.16
31299;BME280;17927;52.350;13.402;2022-09-09T07:16:48;100736.78;;;21.74;60.42
31299;BME280;17927;52.350;13.402;2022-09-09T07:19:14;100743.09;;;21.81;60.24
31299;BME280;17927;52.350;13.402;2022-09-09T07:21:39;100738.41;;;21.88;60.27
31299;BME280;17927;52.350;13.402;2022-09-09T07:24:05;100743.66;;;21.97;60.60
31299;BME280;17927;52.350;13.402;2022-09-09T07:26:33;100747.84;;;22.06;60.10
31299;BME280;17927;52.350;13.402;2022-09-09T07:28:58;100745.69;;;22.15;59.57
31299;BME280;17927;52.350;13.402;2022-09-09T07:31:27;100739.50;;;22.19;59.34
31299;BME280;17927;52.350;13.402;2022-09-09T07:33:52;100747.13;;;22.24;59.06
31299;BME280;17927;52.350;13.402;2022-09-09T07:36:23;100747.69;;;22.33;59.18
31299;BME280;17927;52.350;13.402;2022-09-09T07:38:52;100745.13;;;22.38;58.99
31299;BME280;17927;52.350;13.402;2022-09-09T07:41:26;100746.16;;;22.44;58.34
31299;BME280;17927;52.350;13.402;2022-09-09T07:43:52;100749.53;;;22.46;58.73
31299;BME280;17927;52.350;13.402;2022-09-09T07:46:22;100753.78;;;22.48;58.18
31299;BME280;17927;52.350;13.402;2022-09-09T07:48:50;100750.41;;;22.46;57.98
31299;BME280;17927;52.350;13.402;2022-09-09T07:51:17;100755.66;;;22.48;58.01
31299;BME280;17927;52.350;13.402;2022-09-09T07:53:45;100758.22;;;22.49;57.84
31299;BME280;17927;52.350;13.402;2022-09-09T07:56:13;100758.81;;;22.51;57.71
31299;BME280;17927;52.350;13.402;2022-09-09T07:58:40;100765.78;;;22.54;57.97
31299;BME280;17927;52.350;13.402;2022-09-09T08:01:07;100768.50;;;22.61;57.53
31299;BME280;17927;52.350;13.402;2022-09-09T08:03:32;100768.88;;;22.64;57.54
31299;BME280;17927;52.350;13.402;2022-09-09T08:06:01;100762.94;;;22.68;57.44
31299;BME280;17927;52.350;13.402;2022-09-09T08:08:26;100780.47;;;22.73;57.74
31299;BME280;17927;52.350;13.402;2022-09-09T08:10:52;100780.25;;;22.75;57.85
31299;BME280;17927;52.350;13.402;2022-09-09T08:13:17;100773.66;;;22.76;57.39
31299;BME280;17927;52.350;13.402;2022-09-09T08:15:43;100782.53;;;22.78;57.77
31299;BME280;17927;52.350;13.402;2022-09-09T08:18:09;100779.97;;;22.83;57.61
31299;BME280;17927;52.350;13.402;2022-09-09T08:20:36;100771.28;;;22.86;57.28
31299;BME280;17927;52.350;13.402;2022-09-09T08:23:01;100779.06;;;22.89;57.28
31299;BME280;17927;52.350;13.402;2022-09-09T08:25:26;100772.50;;;22.90;57.54
31299;BME280;17927;52.350;13.402;2022-09-09T08:27:53;100776.72;;;22.93;56.98
31299;BME280;17927;52.350;13.402;2022-09-09T08:30:18;100772.91;;;22.94;57.12
31299;BME280;17927;52.350;13.402;2022-09-09T08:32:43;100785.59;;;22.95;56.58
31299;BME280;17927;52.350;13.402;2022-09-09T08:35:08;100780.09;;;22.95;56.83
31299;BME280;17927;52.350;13.402;2022-09-09T08:37:34;100784.53;;;22.96;56.78
31299;BME280;17927;52.350;13.402;2022-09-09T08:39:59;100784.94;;;23.00;56.57
31299;BME280;17927;52.350;13.402;2022-09-09T08:42:35;100787.00;;;23.04;56.69
31299;BME280;17927;52.350;13.402;2022-09-09T08:45:14;100775.31;;;23.09;56.75
31299;BME280;17927;52.350;13.402;2022-09-09T08:48:01;100780.38;;;23.12;56.56
31299;BME280;17927;52.350;13.402;2022-09-09T08:50:34;100779.69;;;23.17;56.22
31299;BME280;17927;52.350;13.402;2022-09-09T08:53:19;100777.88;;;23.29;56.16
31299;BME280;17927;52.350;13.402;2022-09-09T08:55:51;100778.44;;;23.38;56.36
31299;BME280;17927;52.350;13.402;2022-09-09T08:58:24;100782.34;;;23.49;55.88
31299;BME280;17927;52.350;13.402;2022-09-09T09:01:00;100787.34;;;23.59;56.03
31299;BME280;17927;52.350;13.402;2022-09-09T09:03:40;100779.00;;;23.65;55.80
31299;BME280;17927;52.350;13.402;2022-09-09T09:09:12;100784.50;;;23.84;55.64
31299;BME280;17927;52.350;13.402;2022-09-09T09:11:50;100782.91;;;23.95;55.30
31299;BME280;17927;52.350;13.402;2022-09-09T09:14:22;100783.84;;;24.07;55.32
31299;BME280;17927;52.350;13.402;2022-09-09T09:16:56;100784.56;;;24.14;55.03
31299;BME280;17927;52.350;13.402;2022-09-09T09:19:23;100786.88;;;24.17;54.50
31299;BME280;17927;52.350;13.402;2022-09-09T09:21:57;100775.38;;;24.21;54.20
31299;BME280;17927;52.350;13.402;2022-09-09T09:27:12;100774.03;;;24.23;53.77
31299;BME280;17927;52.350;13.402;2022-09-09T09:29:38;100778.28;;;24.26;53.81
31299;BME280;17927;52.350;13.402;2022-09-09T09:32:05;100779.47;;;24.30;54.26
31299;BME280;17927;52.350;13.402;2022-09-09T09:34:34;100779.88;;;24.33;54.48
31299;BME280;17927;52.350;13.402;2022-09-09T09:37:00;100778.91;;;24.40;54.30
31299;BME280;17927;52.350;13.402;2022-09-09T09:39:31;100781.81;;;24.45;54.70
31299;BME280;17927;52.350;13.402;2022-09-09T09:42:10;100781.09;;;24.50;54.38
31299;BME280;17927;52.350;13.402;2022-09-09T09:44:37;100781.00;;;24.56;54.48
31299;BME280;17927;52.350;13.402;2022-09-09T09:47:16;100773.94;;;24.60;54.26
31299;BME280;17927;52.350;13.402;2022-09-09T09:49:53;100779.59;;;24.66;53.88
31299;BME280;17927;52.350;13.402;2022-09-09T09:52:23;100768.91;;;24.69;53.78
31299;BME280;17927;52.350;13.402;2022-09-09T09:54:49;100768.47;;;24.72;53.61
31299;BME280;17927;52.350;13.402;2022-09-09T09:57:16;100769.19;;;24.80;53.61
31299;BME280;17927;52.350;13.402;2022-09-09T09:59:41;100780.13;;;24.86;53.78
31299;BME280;17927;52.350;13.402;2022-09-09T10:02:22;100775.50;;;24.99;53.80
31299;BME280;17927;52.350;13.402;2022-09-09T10:05:01;100782.94;;;25.10;54.05
31299;BME280;17927;52.350;13.402;2022-09-09T10:07:26;100780.06;;;25.17;54.33
31299;BME280;17927;52.350;13.402;2022-09-09T10:09:56;100780.53;;;25.26;53.73
31299;BME280;17927;52.350;13.402;2022-09-09T10:15:41;100783.16;;;25.32;52.94
31299;BME280;17927;52.350;13.402;2022-09-09T10:24:26;100784.72;;;25.40;52.46
31299;BME280;17927;52.350;13.402;2022-09-09T10:27:22;100784.38;;;25.48;52.27
31299;BME280;17927;52.350;13.402;2022-09-09T10:32:36;100785.81;;;25.63;51.87
31299;BME280;17927;52.350;13.402;2022-09-09T10:35:25;100789.53;;;25.68;51.13
31299;BME280;17927;52.350;13.402;2022-09-09T10:38:11;100780.66;;;25.66;50.70
31299;BME280;17927;52.350;13.402;2022-09-09T10:43:43;100784.84;;;25.69;51.40
31299;BME280;17927;52.350;13.402;2022-09-09T10:51:56;100771.78;;;25.93;51.68
31299;BME280;17927;52.350;13.402;2022-09-09T10:54:33;100772.72;;;25.99;51.70
31299;BME280;17927;52.350;13.402;2022-09-09T10:57:17;100768.25;;;26.10;51.66
31299;BME280;17927;52.350;13.402;2022-09-09T10:59:50;100779.47;;;26.15;50.81
31299;BME280;17927;52.350;13.402;2022-09-09T11:02:26;100771.22;;;26.20;50.64
31299;BME280;17927;52.350;13.402;2022-09-09T11:05:06;100775.78;;;26.26;50.52
31299;BME280;17927;52.350;13.402;2022-09-09T11:11:25;100770.69;;;26.35;49.64
31299;BME280;17927;52.350;13.402;2022-09-09T11:13:49;100770.22;;;26.38;49.45
31299;BME280;17927;52.350;13.402;2022-09-09T11:16:29;100775.00;;;26.43;49.64
31299;BME280;17927;52.350;13.402;2022-09-09T11:19:03;100776.25;;;26.52;48.90
31299;BME280;17927;52.350;13.402;2022-09-09T11:21:37;100773.09;;;26.60;48.58
31299;BME280;17927;52.350;13.402;2022-09-09T11:24:10;100776.78;;;26.66;48.15
31299;BME280;17927;52.350;13.402;2022-09-09T11:26:41;100772.66;;;26.69;47.38
31299;BME280;17927;52.350;13.402;2022-09-09T11:29:47;100775.44;;;26.69;46.93
31299;BME280;17927;52.350;13.402;2022-09-09T11:32:22;100768.47;;;26.66;46.82
31299;BME280;17927;52.350;13.402;2022-09-09T11:35:01;100764.69;;;26.72;47.30
31299;BME280;17927;52.350;13.402;2022-09-09T11:40:26;100770.69;;;26.98;47.43
31299;BME280;17927;52.350;13.402;2022-09-09T11:43:19;100760.94;;;27.13;46.75
31299;BME280;17927;52.350;13.402;2022-09-09T11:45:52;100759.16;;;27.24;46.63
31299;BME280;17927;52.350;13.402;2022-09-09T11:48:38;100759.38;;;27.39;46.56
31299;BME280;17927;52.350;13.402;2022-09-09T11:51:12;100755.41;;;27.52;46.42
31299;BME280;17927;52.350;13.402;2022-09-09T11:53:49;100755.38;;;27.69;46.82
31299;BME280;17927;52.350;13.402;2022-09-09T11:56:25;100751.69;;;27.86;46.45
31299;BME280;17927;52.350;13.402;2022-09-09T11:59:05;100756.56;;;28.01;45.82
31299;BME280;17927;52.350;13.402;2022-09-09T12:01:44;100749.81;;;28.14;46.07
31299;BME280;17927;52.350;13.402;2022-09-09T12:04:32;100745.75;;;28.26;45.00
31299;BME280;17927;52.350;13.402;2022-09-09T12:07:04;100747.88;;;28.41;45.88
31299;BME280;17927;52.350;13.402;2022-09-09T12:09:50;100741.66;;;28.62;44.95
31299;BME280;17927;52.350;13.402;2022-09-09T12:12:23;100734.31;;;28.78;44.68
31299;BME280;17927;52.350;13.402;2022-09-09T12:15:18;100732.25;;;29.00;44.16
31299;BME280;17927;52.350;13.402;2022-09-09T12:17:50;100734.88;;;29.17;43.68
31299;BME280;17927;52.350;13.402;2022-09-09T12:20:17;100726.88;;;29.31;42.93
31299;BME280;17927;52.350;13.402;2022-09-09T12:25:57;100727.59;;;29.54;41.97
31299;BME280;17927;52.350;13.402;2022-09-09T12:28:45;100725.13;;;29.63;41.26
31299;BME280;17927;52.350;13.402;2022-09-09T12:31:34;100722.38;;;29.73;41.71
31299;BME280;17927;52.350;13.402;2022-09-09T12:34:42;100712.38;;;29.83;41.21
31299;BME280;17927;52.350;13.402;2022-09-09T12:40:02;100706.00;;;29.92;40.33
31299;BME280;17927;52.350;13.402;2022-09-09T12:42:28;100699.66;;;30.02;40.01
31299;BME280;17927;52.350;13.402;2022-09-09T12:44:57;100704.41;;;30.12;40.09
31299;BME280;17927;52.350;13.402;2022-09-09T12:47:39;100702.19;;;30.25;39.49
31299;BME280;17927;52.350;13.402;2022-09-09T12:50:18;100699.97;;;30.32;39.89
31299;BME280;17927;52.350;13.402;2022-09-09T12:52:44;100707.50;;;30.36;39.87
31299;BME280;17927;52.350;13.402;2022-09-09T12:55:17;100706.38;;;30.37;39.07
31299;BME280;17927;52.350;13.402;2022-09-09T12:57:43;100712.50;;;30.34;39.39
31299;BME280;17927;52.350;13.402;2022-09-09T13:00:19;100726.72;;;30.33;39.30
31299;BME280;17927;52.350;13.402;2022-09-09T13:02:56;100723.09;;;30.27;38.99
31299;BME280;17927;52.350;13.402;2022-09-09T13:05:34;100719.72;;;30.20;38.70
31299;BME280;17927;52.350;13.402;2022-09-09T13:08:04;100718.03;;;30.14;38.32
31299;BME280;17927;52.350;13.402;2022-09-09T13:10:34;100724.44;;;30.04;38.42
31299;BME280;17927;52.350;13.402;2022-09-09T13:13:00;100708.53;;;29.94;38.72
31299;BME280;17927;52.350;13.402;2022-09-09T13:15:28;100714.34;;;29.87;38.87
31299;BME280;17927;52.350;13.402;2022-09-09T13:17:56;100711.81;;;29.81;38.60
31299;BME280;17927;52.350;13.402;2022-09-09T13:20:23;100714.88;;;29.74;38.76
31299;BME280;17927;52.350;13.402;2022-09-09T13:22:50;100708.13;;;29.65;38.59
31299;BME280;17927;52.350;13.402;2022-09-09T13:25:22;100696.13;;;29.54;38.67
31299;BME280;17927;52.350;13.402;2022-09-09T13:28:20;100699.44;;;29.45;38.54
31299;BME280;17927;52.350;13.402;2022-09-09T13:30:56;100691.28;;;29.33;38.73
31299;BME280;17927;52.350;13.402;2022-09-09T13:33:38;100696.81;;;29.23;39.39
31299;BME280;17927;52.350;13.402;2022-09-09T13:36:08;100702.56;;;29.11;39.33
31299;BME280;17927;52.350;13.402;2022-09-09T13:38:52;100694.47;;;29.05;38.96
31299;BME280;17927;52.350;13.402;2022-09-09T13:41:22;100690.78;;;28.94;39.35
31299;BME280;17927;52.350;13.402;2022-09-09T13:43:48;100690.00;;;28.66;40.45
31299;BME280;17927;52.350;13.402;2022-09-09T13:46:37;100703.91;;;28.66;40.13
31299;BME280;17927;52.350;13.402;2022-09-09T13:49:19;100697.47;;;28.60;40.05
31299;BME280;17927;52.350;13.402;2022-09-09T13:51:46;100694.91;;;28.53;40.02
31299;BME280;17927;52.350;13.402;2022-09-09T13:54:16;100710.44;;;28.49;40.40
31299;BME280;17927;52.350;13.402;2022-09-09T13:56:42;100704.53;;;28.40;40.43
31299;BME280;17927;52.350;13.402;2022-09-09T13:59:16;100703.91;;;28.33;40.78
31299;BME280;17927;52.350;13.402;2022-09-09T14:01:42;100709.94;;;28.25;40.82
31299;BME280;17927;52.350;13.402;2022-09-09T14:04:08;100705.97;;;28.16;40.88
31299;BME280;17927;52.350;13.402;2022-09-09T14:06:37;100711.13;;;28.07;41.37
31299;BME280;17927;52.350;13.402;2022-09-09T14:09:04;100722.38;;;27.95;41.99
31299;BME280;17927;52.350;13.402;2022-09-09T14:11:29;100716.38;;;27.81;42.20
31299;BME280;17927;52.350;13.402;2022-09-09T14:13:55;100721.22;;;27.69;42.86
31299;BME280;17927;52.350;13.402;2022-09-09T14:16:20;100713.88;;;27.57;43.20
31299;BME280;17927;52.350;13.402;2022-09-09T14:18:46;100706.00;;;27.49;43.28